La Mata - P.N. Sant Llorenç del Munt i l'Obac





Hora UTC 19:50
Temperatura 17.4 ºC
Humitat 83.8 %
Pressió 1021.4 hPa
Pluja 0.0 mm
Velocitat vent 13.5 km/h
Direcció vent S
Radiació solar 0.1 W/m²
Fuel 55.7 %

Dades diàries 2022-08-19



Hora UTC (hivern +1h; estiu +2h)
Temperatura (ºC) Humitat (%) Pressió (hPa) Velocitat vent (km/h) Precipitació (mm) Fuel (%) Radiació solar (W/m²)
Hora UTC Aire Humitat Pressió Vel. Dir. Vel. Max Dir. Intent. màx 5 min. Fuel Rad. Sol.
00:05 15.5 67.5 1019.0 6.0 NW 6.0 WNW 0.0 275.0 0.1
00:10 15.4 67.9 1019.1 2.3 NE 7.4 N 0.0 273.3 0.1
00:15 15.4 68.8 1019.0 6.8 NW 13.8 WNW 0.0 271.7 0.1
00:20 15.4 70.2 1019.0 4.2 NW 15.9 WNW 0.0 270.0 0.1
00:25 15.2 71.7 1018.9 3.5 N 12.0 NW 0.0 268.6 0.1
00:30 14.9 74.1 1018.9 5.4 SE 15.2 WNW 0.0 267.5 0.1
00:35 14.9 75.5 1018.8 3.9 ENE 9.5 SW 0.0 266.4 0.1
00:40 14.6 77.1 1018.8 3.0 SE 7.4 SSE 0.0 265.6 0.1
00:45 14.3 79.0 1018.8 2.5 ESE 5.3 E 0.0 265.1 0.1
00:50 14.1 80.4 1018.8 3.0 ESE 6.0 SSE 0.0 264.7 0.1
00:55 13.9 81.6 1018.8 3.2 E 6.7 ENE 0.0 264.3 0.1
01:00 13.9 82.2 1018.7 4.7 NE 9.2 N 0.0 264.0 0.1
01:05 14.0 81.9 1018.7 7.3 NNE 15.9 NNE 0.0 263.5 0.1
01:10 14.1 81.5 1018.7 5.1 NNE 16.2 NNE 0.0 262.9 0.1
01:15 14.1 81.9 1018.7 6.8 N 14.1 NE 0.0 262.2 0.1
01:20 14.0 82.2 1018.8 5.0 NNE 12.7 NE 0.0 261.7 0.1
01:25 14.0 82.6 1018.7 4.2 N 14.8 NNE 0.0 261.2 0.1
01:30 13.8 83.0 1018.7 2.6 NE 11.6 SW 0.0 260.7 0.1
01:35 13.7 83.4 1018.7 2.7 ENE 8.1 NNW 0.0 260.3 0.1
01:40 13.6 83.8 1018.7 4.4 SE 15.9 NNW 0.0 259.9 0.1
01:45 13.4 84.2 1018.7 4.5 S 14.5 NW 0.0 259.6 0.1
01:50 13.3 84.5 1018.7 3.9 E 9.9 ESE 0.0 259.1 0.1
01:55 13.1 85.1 1018.7 4.4 ESE 9.5 ESE 0.0 258.9 0.1
02:00 13.0 85.7 1018.7 3.8 E 10.2 ESE 0.0 258.7 0.1
02:05 12.9 85.9 1018.8 4.3 ESE 10.2 S 0.0 258.5 0.1
02:10 12.9 86.2 1018.8 3.5 ENE 7.1 ESE 0.0 258.3 0.1
02:15 12.7 86.5 1018.8 3.2 E 7.1 E 0.0 258.2 0.1
02:20 12.6 87.3 1018.8 2.5 NE 6.7 NNE 0.0 258.2 0.1
02:25 12.5 88.0 1018.7 2.9 ENE 7.4 NNW 0.0 258.3 0.1
02:30 12.5 88.3 1018.7 2.5 ENE 10.9 W 0.0 258.4 0.1
02:35 12.5 88.4 1018.7 5.4 NNE 12.7 N 0.0 258.4 0.1
02:40 12.5 88.9 1018.8 9.5 N 18.7 N 0.0 258.4 0.1
02:45 12.6 89.0 1018.8 7.5 N 17.6 N 0.0 258.4 0.1
02:50 12.6 89.0 1018.7 8.5 N 16.6 N 0.0 258.4 0.1
02:55 12.6 89.0 1018.7 8.3 NNW 16.9 N 0.0 258.4 0.1
03:00 12.6 89.1 1018.7 10.0 N 19.1 NNW 0.0 258.3 0.1
03:05 12.6 89.2 1018.8 5.6 NNW 17.6 N 0.0 258.2 0.1
03:10 12.5 89.3 1018.8 2.7 N 8.5 NNW 0.0 258.2 0.1
03:15 12.5 89.6 1018.9 3.8 NNW 10.6 N 0.0 258.4 0.1
03:20 12.5 89.8 1018.9 6.2 N 11.3 N 0.0 258.5 0.1
03:25 12.4 89.9 1018.9 6.9 NNW 13.8 NNW 0.0 258.5 0.1
03:30 12.4 89.7 1018.9 7.0 NNW 15.2 N 0.0 258.4 0.1
03:35 12.5 89.5 1018.9 8.0 NNW 14.1 NNW 0.0 258.2 0.1
03:40 12.6 88.8 1018.9 8.8 NNW 14.5 N 0.0 257.9 0.1
03:45 12.6 88.3 1018.9 7.9 N 16.6 N 0.0 257.6 0.1
03:50 12.6 88.2 1018.9 9.5 N 16.2 N 0.0 257.4 0.1
03:55 12.5 88.2 1018.9 8.9 N 15.9 N 0.0 257.1 0.1
04:00 12.4 88.6 1018.9 7.2 N 12.7 N 0.0 257.1 0.1
04:05 12.3 89.0 1018.9 8.5 N 14.8 NNW 0.0 257.1 0.1
04:10 12.3 89.1 1018.9 9.4 N 14.5 NNW 0.0 257.0 0.1
04:15 12.3 89.0 1018.9 9.4 N 15.2 N 0.0 256.8 0.1
04:20 12.4 88.7 1018.9 11.1 N 14.8 N 0.0 256.5 0.1
04:25 12.4 88.3 1018.9 8.8 N 13.8 N 0.0 256.2 0.1
04:30 12.3 88.4 1019.0 9.3 N 14.1 NNW 0.0 256.1 0.1
04:35 12.4 88.6 1019.0 11.4 N 22.2 N 0.0 255.8 0.1
04:40 12.6 87.6 1019.1 12.1 N 18.7 N 0.0 255.3 0.1
04:45 12.6 87.2 1019.1 13.3 N 20.1 NNW 0.0 254.8 0.2
04:50 12.4 87.9 1019.1 9.9 NNW 15.2 NNW 0.0 254.4 0.4
04:55 12.5 88.0 1019.1 9.9 N 18.4 NNW 0.0 254.0 1.0
05:00 12.7 86.7 1019.3 8.8 N 16.9 NNW 0.0 253.5 1.9
05:05 12.8 85.4 1019.3 9.9 N 18.4 N 0.0 252.9 3.3
05:10 12.9 84.8 1019.2 11.6 N 16.9 N 0.0 252.3 5.0
05:15 13.0 84.5 1019.3 12.0 N 18.7 NNW 0.0 251.5 7.1
05:20 13.0 84.3 1019.3 13.1 N 19.4 N 0.0 250.6 10.9
05:25 13.1 84.3 1019.3 13.4 N 22.2 N 0.0 249.8 38.1
05:30 13.2 84.0 1019.3 16.1 N 22.9 N 0.0 248.8 50.9
05:35 13.3 83.9 1019.4 13.9 N 22.6 NNW 0.0 247.8 61.1
05:40 13.0 85.2 1019.4 12.1 N 18.0 N 0.0 247.2 75.4
05:45 12.7 86.9 1019.5 14.1 N 19.4 NNW 0.0 246.8 89.7
05:50 12.5 88.0 1019.6 11.9 N 16.9 N 0.0 246.6 103.5
05:55 12.4 88.9 1019.7 11.7 N 18.7 N 0.0 246.4 117.5
06:00 12.4 89.4 1019.7 11.2 N 18.0 NNE 0.0 246.2 131.2
06:05 12.5 89.3 1019.8 10.0 N 18.7 N 0.0 246.0 145.4
06:10 12.5 89.2 1019.9 11.5 N 19.8 N 0.0 245.8 159.7
06:15 12.5 89.4 1020.0 10.0 N 16.9 NNE 0.0 245.7 174.1
06:20 12.6 89.5 1020.0 7.2 N 15.2 NNE 0.0 245.2 189.0
06:25 12.8 89.3 1020.0 7.7 N 15.5 NNW 0.0 244.0 204.1
06:30 12.9 88.9 1020.1 5.5 NNW 18.0 NNW 0.0 242.4 219.2
06:35 12.9 88.5 1020.1 10.6 NNW 20.1 NNW 0.0 240.4 234.6
06:40 13.0 88.3 1020.0 11.2 N 18.0 N 0.0 238.2 250.4
06:45 13.2 87.9 1019.9 10.1 N 18.0 N 0.0 236.2 266.3
06:50 13.4 86.9 1019.9 9.7 N 16.2 N 0.0 233.8 282.2
06:55 13.6 85.8 1020.0 10.7 NNW 15.9 NNW 0.0 231.3 297.5
07:00 13.9 84.5 1020.1 8.3 N 15.5 NNW 0.0 228.7 313.0
07:05 14.2 82.5 1020.1 10.2 NNW 15.9 NNW 0.0 225.9 328.6
07:10 14.3 82.2 1020.2 9.0 N 18.4 N 0.0 223.2 343.9
07:15 14.4 82.6 1020.2 10.4 N 18.0 N 0.0 220.7 359.2
07:20 14.5 82.4 1020.3 11.6 N 19.4 N 0.0 218.1 374.0
07:25 14.5 82.1 1020.4 12.0 N 19.8 N 0.0 215.3 389.5
07:30 14.5 82.3 1020.3 11.4 N 20.5 N 0.0 212.7 404.5
07:35 14.6 82.2 1020.4 11.0 N 18.0 N 0.0 210.0 419.6
07:40 14.7 81.4 1020.5 9.4 N 18.7 N 0.0 207.2 434.6
07:45 14.8 80.7 1020.5 8.4 N 16.2 N 0.0 204.3 448.7
07:50 14.9 81.0 1020.5 10.1 N 19.1 NNE 0.0 201.5 463.4
07:55 15.1 80.8 1020.5 8.9 N 16.2 N 0.0 198.8 477.9
08:00 15.3 79.7 1020.5 7.7 N 15.5 NNW 0.0 195.9 492.0
08:05 15.4 78.4 1020.6 9.2 N 16.2 N 0.0 192.8 506.1
08:10 15.6 78.4 1020.6 6.8 N 16.9 NNW 0.0 189.8 520.0
08:15 15.7 78.0 1020.7 11.4 N 19.4 N 0.0 186.7 533.3
08:20 15.6 78.8 1020.7 10.7 N 21.2 N 0.0 183.9 546.9
08:25 15.7 79.1 1020.7 10.3 N 18.7 N 0.0 181.6 560.5
08:30 15.8 78.5 1020.7 11.7 N 19.8 N 0.0 178.8 573.8
08:35 16.0 77.7 1020.7 9.1 N 17.3 N 0.0 176.0 587.0
08:40 16.3 76.8 1020.7 7.8 N 16.6 N 0.0 173.2 599.9
08:45 16.5 75.8 1020.7 8.3 N 16.6 NNW 0.0 170.2 612.6
08:50 16.6 75.5 1020.7 8.6 N 16.9 N 0.0 167.1 625.1
08:55 16.8 76.3 1020.7 7.6 N 16.9 NNW 0.0 164.2 637.5
09:00 16.9 75.8 1020.7 9.0 N 18.0 N 0.0 161.4 649.4
09:05 17.1 75.7 1020.7 10.0 N 17.6 N 0.0 159.1 661.4
09:10 17.1 75.1 1020.7 9.4 N 16.9 N 0.0 155.7 672.8
09:15 17.3 75.2 1020.7 8.0 N 16.9 N 0.0 152.9 684.6
09:20 17.3 74.2 1020.8 10.3 N 18.4 N 0.0 150.0 695.4
09:25 17.1 74.4 1020.9 10.3 N 20.1 NNE 0.0 147.2 705.2
09:30 17.2 75.0 1021.0 9.7 N 19.8 N 0.0 144.6 715.9
09:35 17.2 74.5 1021.0 10.1 N 16.9 N 0.0 141.9 726.4
09:40 17.5 74.4 1021.0 9.5 N 15.9 N 0.0 139.4 736.7
09:45 17.7 73.7 1020.9 8.5 N 18.0 NNW 0.0 136.9 746.7
09:50 17.9 72.9 1021.0 8.2 N 14.8 NNW 0.0 134.2 755.9
09:55 18.2 73.0 1021.1 5.2 N 16.2 N 0.0 131.7 764.2
10:00 18.6 71.9 1021.1 5.2 NNW 14.5 NNE 0.0 129.0 772.8
10:05 18.4 70.0 1021.1 5.7 NNW 13.1 NNW 0.0 126.4 781.7
10:10 18.4 70.0 1021.0 8.9 NNW 18.0 NNW 0.0 123.6 789.7
10:15 18.4 71.6 1021.0 7.0 N 14.8 N 0.0 121.2 797.0
10:20 18.7 69.3 1021.0 7.8 N 16.2 N 0.0 118.6 805.0
10:25 18.8 68.9 1021.0 7.7 N 14.8 N 0.0 116.0 812.0
10:30 19.3 68.9 1021.0 6.9 N 15.2 NNW 0.0 113.5 819.0
10:35 19.5 68.6 1021.0 5.4 N 13.4 NNW 0.0 111.1 824.0
10:40 19.8 67.2 1021.0 6.6 N 16.2 N 0.0 108.6 830.0
10:45 19.4 68.1 1021.0 7.7 N 15.5 N 0.0 106.1 836.0
10:50 19.4 68.1 1021.0 6.1 N 14.1 N 0.0 104.0 840.0
10:55 19.8 66.9 1021.1 6.9 NNW 16.9 N 0.0 101.8 846.0
11:00 19.8 66.4 1021.1 6.3 NW 11.6 NNW 0.0 99.8 850.0
11:05 19.7 66.5 1021.1 6.2 NNW 16.9 N 0.0 98.0 854.0
11:10 20.0 66.0 1021.1 4.9 N 12.4 N 0.0 96.3 857.0
11:15 20.2 64.4 1021.1 4.9 NNW 11.6 NW 0.0 94.4 861.0
11:20 20.5 64.0 1021.1 5.1 NNW 12.7 NW 0.0 92.6 864.0
11:25 20.8 63.0 1021.1 4.1 NNW 10.6 NW 0.0 90.6 867.0
11:30 20.9 62.9 1021.1 6.3 NNW 15.5 NNE 0.0 88.7 867.0
11:35 21.1 63.1 1021.0 5.7 NNW 17.6 NNW 0.0 87.2 868.0
11:40 21.2 61.8 1021.0 6.6 NNW 16.2 WNW 0.0 85.5 868.0
11:45 21.2 62.0 1021.0 7.6 NNW 13.8 NW 0.0 84.1 868.0
11:50 21.1 61.7 1021.0 4.6 NW 10.6 N 0.0 82.8 868.0
11:55 21.3 59.8 1020.9 5.1 N 14.1 NE 0.0 81.4 868.0
12:00 21.6 58.8 1020.9 6.3 N 12.7 N 0.0 79.8 868.0
12:05 21.7 58.6 1020.9 4.9 NNW 12.0 NNW 0.0 78.5 867.0
12:10 21.9 55.8 1020.9 3.5 NW 10.9 NNE 0.0 77.2 867.0
12:15 22.2 54.5 1020.9 6.1 NW 13.4 NW 0.0 75.7 865.0
12:20 22.1 53.4 1020.9 5.8 NW 11.3 W 0.0 74.2 861.0
12:25 22.2 53.4 1020.9 5.5 WNW 12.4 WNW 0.0 73.4 860.0
12:30 22.7 51.3 1020.9 7.3 NNW 17.3 N 0.0 72.3 784.0
12:35 22.8 51.6 1020.8 4.8 N 13.1 N 0.0 71.0 853.0
12:40 23.0 49.0 1020.8 6.4 N 15.5 NNW 0.0 69.6 851.0
12:45 23.0 48.8 1020.8 4.2 NNW 12.4 N 0.0 68.3 847.0
12:50 23.2 49.0 1020.8 5.6 NNE 17.3 NNE 0.0 67.2 844.0
12:55 22.9 49.3 1020.8 6.9 N 15.5 NE 0.0 65.9 840.0
13:00 23.5 49.2 1020.8 4.6 NNE 11.6 NE 0.0 65.0 836.0
13:05 23.4 46.8 1020.8 7.1 N 20.5 N 0.0 63.7 834.0
13:10 23.5 46.4 1020.8 5.7 WNW 13.4 NW 0.0 62.6 833.0
13:15 23.6 45.7 1020.8 6.5 NW 14.8 W 0.0 61.4 825.0
13:20 23.6 46.9 1020.8 2.6 N 7.8 NW 0.0 60.9 815.0
13:25 24.0 45.0 1020.8 4.9 W 13.1 W 0.0 60.0 804.0
13:30 23.6 44.9 1020.7 5.8 WNW 15.2 WNW 0.0 58.6 796.7
13:35 23.6 43.7 1020.8 4.5 WNW 10.2 W 0.0 58.0 790.4
13:40 24.0 44.5 1020.7 3.6 N 9.9 NNE 0.0 57.4 781.4
13:45 23.9 42.6 1020.6 11.1 WSW 20.1 WSW 0.0 56.1 772.6
13:50 23.2 43.9 1020.6 7.7 WSW 16.2 W 0.0 55.0 764.5
13:55 23.8 45.2 1020.7 4.0 NW 13.4 W 0.0 55.1 754.6
14:00 23.9 43.0 1020.7 7.1 WNW 17.3 WNW 0.0 54.0 746.2
14:05 23.6 43.6 1020.6 7.2 WNW 15.2 W 0.0 52.9 736.1
14:10 23.8 43.6 1020.6 7.7 WSW 16.9 SSW 0.0 52.6 728.7
14:15 24.1 42.6 1020.6 12.4 WSW 26.5 WSW 0.0 51.8 718.2
14:20 24.2 42.4 1020.6 9.8 WSW 24.0 SSW 0.0 51.4 707.7
14:25 24.6 41.2 1020.6 9.1 SW 20.5 SSW 0.0 50.9 698.4
14:30 24.8 41.7 1020.6 4.2 S 11.3 SSE 0.0 50.5 690.7
14:35 25.2 44.2 1020.6 6.5 S 14.8 SSE 0.0 50.3 686.0
14:40 24.6 43.8 1020.6 6.4 SSW 19.8 WSW 0.0 49.3 666.9
14:45 24.5 46.6 1020.5 10.6 W 21.2 WSW 0.0 48.8 648.0
14:50 24.1 50.2 1020.5 12.3 SSW 22.9 SW 0.0 48.5 635.9
14:55 23.9 52.0 1020.5 10.8 S 18.7 S 0.0 48.5 622.0
15:00 23.8 52.4 1020.4 13.8 S 21.5 SSE 0.0 48.3 606.2
15:05 23.6 53.8 1020.5 12.9 SSE 21.2 SSE 0.0 48.2 601.2
15:10 23.6 55.2 1020.4 12.3 SSE 21.2 SE 0.0 48.1 589.6
15:15 23.5 55.6 1020.5 13.9 SSE 22.9 SE 0.0 48.0 580.3
15:20 23.3 55.9 1020.5 12.5 S 21.5 SSW 0.0 47.4 411.7
15:25 22.8 57.6 1020.4 15.7 S 24.7 S 0.0 47.1 523.6
15:30 22.6 59.0 1020.4 15.3 SSE 24.3 SSE 0.0 47.2 445.6
15:35 22.6 58.7 1020.3 14.3 SSE 25.4 SE 0.0 47.0 410.8
15:40 22.6 59.3 1020.3 15.2 S 24.0 SE 0.0 47.2 503.4
15:45 22.8 58.9 1020.3 13.6 S 23.6 SSE 0.0 47.2 488.8
15:50 22.9 58.9 1020.3 13.7 S 25.1 S 0.0 47.0 476.0
15:55 22.6 59.8 1020.3 14.2 S 24.0 S 0.0 46.8 461.1
16:00 22.8 59.6 1020.3 15.3 S 25.8 SSE 0.0 46.8 446.7
16:05 22.7 60.0 1020.2 15.8 S 25.8 SE 0.0 46.6 433.4
16:10 22.4 60.8 1020.3 14.0 S 23.3 SSW 0.0 46.3 415.1
16:15 22.2 61.4 1020.3 13.8 S 25.1 SSE 0.0 46.2 400.0
16:20 22.3 61.1 1020.3 14.4 S 26.5 S 0.0 46.2 387.2
16:25 22.3 60.8 1020.3 15.0 SSW 25.1 SSW 0.0 46.0 371.4
16:30 22.3 60.8 1020.3 14.4 S 26.1 SSW 0.0 45.9 356.3
16:35 22.2 61.6 1020.3 15.0 SSW 24.0 SSW 0.0 45.9 342.8
16:40 21.9 62.8 1020.3 13.4 S 22.9 SSW 0.0 45.8 327.8
16:45 21.8 63.6 1020.3 15.4 S 24.3 S 0.0 45.8 312.1
16:50 21.6 64.4 1020.3 13.7 S 24.7 S 0.0 45.8 216.0
16:55 21.6 65.0 1020.3 15.3 S 23.6 SSE 0.0 45.8 255.9
17:00 21.5 65.6 1020.3 16.7 S 25.8 SW 0.0 45.7 264.9
17:05 21.2 66.9 1020.2 15.2 S 24.0 SE 0.0 45.7 249.7
17:10 21.1 67.6 1020.2 14.8 S 22.6 SSE 0.0 45.9 234.5
17:15 21.0 68.2 1020.2 14.5 S 24.0 S 0.0 45.9 218.9
17:20 20.9 68.8 1020.3 13.7 S 24.3 SE 0.0 45.9 204.2
17:25 20.8 69.5 1020.2 14.0 S 24.7 SSE 0.0 46.0 189.9
17:30 20.6 70.5 1020.2 14.2 S 22.6 SSW 0.0 46.0 175.8
17:35 20.5 70.7 1020.3 12.2 S 20.5 SSE 0.0 46.2 162.0
17:40 20.4 71.2 1020.2 13.6 S 20.1 SSE 0.0 46.2 148.5
17:45 20.2 72.0 1020.2 13.9 S 19.4 S 0.0 46.2 135.5
17:50 20.0 72.9 1020.2 14.2 S 20.5 SSE 0.0 46.3 122.1
17:55 19.9 73.6 1020.3 13.2 S 20.5 S 0.0 46.3 109.8
18:00 19.8 74.2 1020.4 13.0 S 18.4 S 0.0 46.5 97.2
18:05 19.7 75.0 1020.4 12.3 S 18.4 S 0.0 46.7 85.5
18:10 19.5 75.7 1020.4 12.0 S 18.7 S 0.0 47.0 74.7
18:15 19.3 76.2 1020.4 11.5 S 18.4 S 0.0 47.2 64.2
18:20 19.2 77.0 1020.5 10.6 S 16.9 SSW 0.0 47.4 53.7
18:25 19.0 77.3 1020.5 11.8 S 16.6 S 0.0 47.3 35.6
18:30 18.9 77.8 1020.6 14.1 S 20.1 S 0.0 47.7 13.5
18:35 18.7 78.8 1020.6 14.1 SSW 21.2 S 0.0 48.1 11.3
18:40 18.5 79.6 1020.7 14.1 SSW 19.8 SSW 0.0 48.6 8.9
18:45 18.4 79.6 1020.8 12.9 S 20.1 S 0.0 49.0 6.7
18:50 18.3 79.9 1020.8 14.1 S 19.8 SSW 0.0 49.5 4.5
18:55 18.2 80.9 1020.9 15.2 S 22.6 SSW 0.0 50.0 2.7
19:00 18.1 81.6 1021.0 13.4 SSW 18.7 SSW 0.0 50.5 1.5
19:05 17.9 82.4 1021.0 13.4 SSW 19.8 S 0.0 51.0 0.8
19:10 17.7 82.8 1020.9 12.7 S 21.2 SSW 0.0 51.6 0.3
19:15 17.6 83.0 1021.0 13.5 S 21.9 S 0.0 52.1 0.2
19:20 17.5 83.5 1021.0 15.5 S 22.2 S 0.0 52.7 0.2
19:25 17.4 83.8 1021.1 13.6 S 18.7 SSW 0.0 53.2 0.1
19:30 17.4 83.8 1021.1 15.1 S 22.2 SSW 0.0 53.8 0.1
19:35 17.4 83.4 1021.2 14.2 S 21.5 S 0.0 54.3 0.1
19:40 17.4 83.2 1021.2 13.7 S 21.2 SSE 0.0 54.7 0.1
19:45 17.4 83.3 1021.3 13.7 S 20.5 SSW 0.0 55.2 0.1
19:50 17.4 83.8 1021.4 13.5 S 20.1 SSE 0.0 55.7 0.1
Màxima 25.4 89.9 1021.4 16.7 S 26.5 S 0.0 275.0 868.0
Mínima 12.2 41.2 1018.7 45.7
Total 0.0